Time;durP1;ratioP1;P1;durP2;ratioP2;P2;SDS_P1;SDS_P2;PMS_P1;PMS_P2;Temp;Humidity;BMP_temperature;BMP_pressure;BME280_temperature;BME280_humidity;BME280_pressure;Samples;Min_cycle;Max_cycle;Signal;HPM_P1;HPM_P2
2022/10/19 00:01:35;;;;;;;5.27;3.70;;;;;;;;;;5113814;28;20447;-70
2022/10/19 00:04:02;;;;;;;5.57;3.63;;;;;;;;;;5114057;28;20527;-70
2022/10/19 00:06:30;;;;;;;5.50;3.47;;;;;;;;;;5114202;28;20451;-70
2022/10/19 00:09:00;;;;;;;8.80;4.27;;;;;;;;;;5113276;28;20963;-70
2022/10/19 00:11:27;;;;;;;4.93;3.63;;;;;;;;;;5113845;28;20479;-70
2022/10/19 00:13:56;;;;;;;4.80;3.90;;;;;;;;;;5114569;28;20458;-70
2022/10/19 00:16:23;;;;;;;4.93;3.60;;;;;;;;;;5114493;28;20452;-71
2022/10/19 00:18:51;;;;;;;6.93;4.30;;;;;;;;;;5113897;28;20450;-71
2022/10/19 00:21:19;;;;;;;4.93;3.27;;;;;;;;;;5113664;28;20459;-71
2022/10/19 00:23:46;;;;;;;5.30;4.27;;;;;;;;;;5113713;28;20448;-70
2022/10/19 00:26:15;;;;;;;8.27;4.30;;;;;;;;;;5113418;28;20867;-70
2022/10/19 00:28:42;;;;;;;4.77;3.60;;;;;;;;;;5113183;28;20448;-70
2022/10/19 00:31:10;;;;;;;5.77;3.77;;;;;;;;;;5112936;28;20476;-70
2022/10/19 00:33:37;;;;;;;4.20;3.10;;;;;;;;;;5113518;28;20452;-70
2022/10/19 00:36:05;;;;;;;8.40;5.10;;;;;;;;;;5099757;28;20452;-70
2022/10/19 00:38:32;;;;;;;6.33;4.33;;;;;;;;;;5112667;28;20448;-70
2022/10/19 00:40:59;;;;;;;6.07;4.00;;;;;;;;;;5112596;28;20934;-70
2022/10/19 00:43:29;;;;;;;4.83;3.10;;;;;;;;;;5113200;28;20436;-70
2022/10/19 00:45:57;;;;;;;5.70;3.73;;;;;;;;;;5113514;28;20808;-68
2022/10/19 00:48:26;;;;;;;6.80;4.03;;;;;;;;;;5112736;28;20478;-70
2022/10/19 00:50:55;;;;;;;6.47;3.50;;;;;;;;;;5113695;28;20443;-70
2022/10/19 00:53:22;;;;;;;3.80;3.40;;;;;;;;;;5113484;28;20497;-70
2022/10/19 00:55:49;;;;;;;5.80;3.80;;;;;;;;;;5102682;28;20451;-70
2022/10/19 00:58:16;;;;;;;9.53;3.93;;;;;;;;;;5112024;28;20777;-70
2022/10/19 01:00:45;;;;;;;5.47;3.70;;;;;;;;;;5112522;28;20445;-71
2022/10/19 01:03:13;;;;;;;5.10;4.40;;;;;;;;;;5112407;28;20456;-71
2022/10/19 01:05:40;;;;;;;5.23;3.27;;;;;;;;;;5113266;28;20482;-70
2022/10/19 01:08:09;;;;;;;9.00;3.27;;;;;;;;;;5111588;28;20456;-70
2022/10/19 01:10:43;;;;;;;4.03;3.17;;;;;;;;;;5112947;28;20452;-70
2022/10/19 01:13:21;;;;;;;6.10;3.43;;;;;;;;;;5111081;28;21054;-70
2022/10/19 01:15:55;;;;;;;5.23;3.27;;;;;;;;;;5112616;28;20452;-70
2022/10/19 01:18:23;;;;;;;7.20;3.27;;;;;;;;;;5112532;28;20443;-70
2022/10/19 01:21:02;;;;;;;5.37;3.40;;;;;;;;;;5112661;28;20802;-70
2022/10/19 01:23:43;;;;;;;4.93;3.50;;;;;;;;;;5112946;28;20444;-70
2022/10/19 01:26:16;;;;;;;4.67;3.33;;;;;;;;;;5112052;28;20444;-70
2022/10/19 01:28:49;;;;;;;10.50;3.30;;;;;;;;;;5112245;28;20437;-68
2022/10/19 01:31:22;;;;;;;5.87;3.13;;;;;;;;;;5112233;28;20739;-70
2022/10/19 01:33:53;;;;;;;5.00;4.00;;;;;;;;;;5112374;28;20440;-70
2022/10/19 01:36:24;;;;;;;6.30;3.30;;;;;;;;;;5112305;28;20459;-70
2022/10/19 01:38:54;;;;;;;3.80;3.00;;;;;;;;;;5111962;28;20440;-70
2022/10/19 01:41:22;;;;;;;7.93;3.60;;;;;;;;;;5111454;28;20444;-70
2022/10/19 01:43:55;;;;;;;3.67;2.87;;;;;;;;;;5112194;28;20440;-70
2022/10/19 01:46:27;;;;;;;5.47;3.13;;;;;;;;;;5112425;28;20487;-70
2022/10/19 01:48:56;;;;;;;6.37;3.43;;;;;;;;;;5111358;28;20479;-70
2022/10/19 01:51:26;;;;;;;4.40;2.53;;;;;;;;;;5112028;28;20444;-71
2022/10/19 01:53:55;;;;;;;5.90;4.00;;;;;;;;;;5112443;28;20443;-70
2022/10/19 01:56:24;;;;;;;9.97;4.33;;;;;;;;;;5111629;28;20444;-70
2022/10/19 01:58:52;;;;;;;3.70;2.70;;;;;;;;;;5111810;28;20446;-70
2022/10/19 02:01:20;;;;;;;5.07;3.00;;;;;;;;;;5110647;28;20527;-70
2022/10/19 02:03:49;;;;;;;4.77;2.63;;;;;;;;;;5111972;28;20447;-70
2022/10/19 02:06:16;;;;;;;5.63;3.17;;;;;;;;;;5111060;28;20453;-70
2022/10/19 02:08:45;;;;;;;4.20;3.10;;;;;;;;;;5111220;28;20448;-71
2022/10/19 02:11:12;;;;;;;4.83;3.23;;;;;;;;;;5110814;28;20444;-71
2022/10/19 02:13:40;;;;;;;6.10;2.90;;;;;;;;;;5111904;28;20863;-70
2022/10/19 02:16:10;;;;;;;3.87;2.57;;;;;;;;;;5110540;28;20965;-70
2022/10/19 02:18:40;;;;;;;4.70;3.23;;;;;;;;;;5111811;28;20440;-72
2022/10/19 02:21:09;;;;;;;4.23;2.70;;;;;;;;;;5110294;28;20440;-70
2022/10/19 02:23:36;;;;;;;5.13;3.27;;;;;;;;;;5111079;28;20446;-70
2022/10/19 02:26:04;;;;;;;5.00;3.67;;;;;;;;;;5110333;28;20451;-71
2022/10/19 02:28:31;;;;;;;7.53;3.73;;;;;;;;;;5110642;28;20444;-70
2022/10/19 02:30:59;;;;;;;6.60;3.57;;;;;;;;;;5110531;28;20444;-70
2022/10/19 02:33:26;;;;;;;5.20;3.03;;;;;;;;;;5111723;28;20486;-70
2022/10/19 02:35:53;;;;;;;4.93;2.97;;;;;;;;;;5111748;28;20452;-70
2022/10/19 02:38:22;;;;;;;5.43;2.90;;;;;;;;;;5110220;28;20440;-70
2022/10/19 02:40:53;;;;;;;5.07;3.57;;;;;;;;;;5111239;28;20440;-70
2022/10/19 02:43:22;;;;;;;5.60;2.90;;;;;;;;;;5111328;28;20462;-71
2022/10/19 02:45:55;;;;;;;6.50;4.53;;;;;;;;;;5111536;28;20459;-69
2022/10/19 02:48:23;;;;;;;11.53;4.47;;;;;;;;;;5110568;28;20480;-70
2022/10/19 02:50:51;;;;;;;7.93;4.20;;;;;;;;;;5110544;28;20440;-70
2022/10/19 02:53:18;;;;;;;20.43;5.30;;;;;;;;;;5110487;28;21056;-71
2022/10/19 02:55:48;;;;;;;11.43;4.30;;;;;;;;;;5110708;28;20436;-70
2022/10/19 02:58:15;;;;;;;10.33;3.90;;;;;;;;;;5098070;28;20442;-73
2022/10/19 03:00:42;;;;;;;16.83;5.40;;;;;;;;;;5109642;28;20455;-69
2022/10/19 03:03:09;;;;;;;13.80;5.00;;;;;;;;;;5106818;28;20876;-70
2022/10/19 03:05:37;;;;;;;11.20;5.17;;;;;;;;;;5111259;28;20448;-69
2022/10/19 03:08:04;;;;;;;18.60;5.90;;;;;;;;;;5107558;28;20944;-69
2022/10/19 03:10:31;;;;;;;10.40;5.70;;;;;;;;;;5111019;28;20452;-70
2022/10/19 03:12:59;;;;;;;13.40;6.90;;;;;;;;;;5110379;28;20476;-70
2022/10/19 03:15:28;;;;;;;28.83;6.97;;;;;;;;;;5111597;28;20508;-69
2022/10/19 03:17:55;;;;;;;11.07;5.73;;;;;;;;;;5110699;28;20460;-70
2022/10/19 03:20:22;;;;;;;11.77;6.27;;;;;;;;;;5111301;28;20444;-70
2022/10/19 03:22:50;;;;;;;15.53;6.20;;;;;;;;;;5110925;28;20527;-69
2022/10/19 03:25:17;;;;;;;17.97;7.17;;;;;;;;;;5110548;28;20854;-69
2022/10/19 03:27:44;;;;;;;20.10;8.23;;;13.30;99.90;;;;;;5110550;28;20450;-68
2022/10/19 03:30:12;;;;;;;17.07;6.33;;;14.60;99.90;;;;;;5102032;28;20444;-68
2022/10/19 03:32:39;;;;;;;20.00;7.43;;;14.60;99.90;;;;;;5110873;28;20471;-72
2022/10/19 03:35:07;;;;;;;15.47;8.73;;;14.60;99.90;;;;;;5110612;28;20582;-71
2022/10/19 03:37:34;;;;;;;19.50;7.80;;;14.50;99.90;;;;;;5113740;28;20443;-70
2022/10/19 03:40:01;;;;;;;15.03;6.17;;;14.50;99.90;;;;;;5113980;28;20963;-78
2022/10/19 03:42:27;;;;;;;14.77;7.53;;;14.50;99.90;;;;;;5113788;28;20817;-70
2022/10/19 03:44:54;;;;;;;22.20;7.30;;;14.40;99.90;;;;;;5114752;28;20447;-71
2022/10/19 03:47:22;;;;;;;17.17;6.87;;;14.30;99.90;;;;;;5113965;28;20458;-71
2022/10/19 03:49:50;;;;;;;18.47;7.07;;;14.40;99.90;;;;;;5113933;28;20486;-70
2022/10/19 03:52:17;;;;;;;21.27;7.43;;;14.40;99.90;;;;;;5114217;28;20552;-71
2022/10/19 03:54:43;;;;;;;10.93;6.10;;;14.40;99.90;;;;;;5114692;28;20455;-71
2022/10/19 03:57:11;;;;;;;20.87;6.63;;;14.40;99.90;;;;;;5113787;28;20484;-72
2022/10/19 03:59:38;;;;;;;16.20;7.17;;;14.40;99.90;;;;;;5114192;28;20517;-70
2022/10/19 04:02:05;;;;;;;15.03;7.07;;;14.50;99.90;;;;;;5113873;28;20454;-70
2022/10/19 04:04:33;;;;;;;21.73;8.53;;;14.40;99.90;;;;;;5114465;28;20454;-70
2022/10/19 04:07:00;;;;;;;15.63;7.20;;;14.40;99.90;;;;;;5113951;28;20833;-71
2022/10/19 04:09:27;;;;;;;19.80;9.13;;;14.40;99.90;;;;;;5113978;28;20820;-68
2022/10/19 04:11:53;;;;;;;13.73;6.47;;;14.50;99.90;;;;;;5114186;28;20475;-71
2022/10/19 04:14:21;;;;;;;18.80;6.77;;;14.40;99.90;;;;;;5113813;28;20569;-71
2022/10/19 04:16:48;;;;;;;23.73;8.23;;;14.40;99.90;;;;;;5114053;28;20452;-71
2022/10/19 04:19:15;;;;;;;20.07;8.37;;;14.50;99.90;;;;;;5113181;28;20459;-70
2022/10/19 04:21:44;;;;;;;17.93;7.93;;;14.50;99.90;;;;;;5113845;28;20929;-71
2022/10/19 04:24:13;;;;;;;22.90;8.07;;;14.40;99.90;;;;;;5113556;28;20791;-71
2022/10/19 04:26:42;;;;;;;19.53;9.23;;;14.40;99.90;;;;;;5114033;28;20452;-71
2022/10/19 04:29:10;;;;;;;22.93;9.27;;;14.50;99.90;;;;;;5112782;28;20950;-71
2022/10/19 04:31:37;;;;;;;22.27;10.13;;;14.50;99.90;;;;;;5114126;28;20447;-71
2022/10/19 04:34:04;;;;;;;17.37;8.77;;;14.50;99.90;;;;;;5113387;28;20502;-71
2022/10/19 04:36:31;;;;;;;13.87;7.67;;;14.70;99.90;;;;;;5113661;28;20931;-71
2022/10/19 04:38:59;;;;;;;19.60;8.77;;;14.70;99.90;;;;;;5112828;28;20447;-71
2022/10/19 04:41:26;;;;;;;18.80;8.10;;;14.60;99.90;;;;;;5113800;28;20454;-71
2022/10/19 04:43:57;;;;;;;13.50;7.43;;;14.70;99.90;;;;;;5113838;28;20458;-71
2022/10/19 04:46:25;;;;;;;12.03;6.77;;;14.70;99.90;;;;;;5114118;28;20818;-71
2022/10/19 04:48:52;;;;;;;12.53;6.13;;;14.70;99.90;;;;;;5112838;28;20476;-71
2022/10/19 04:51:20;;;;;;;13.33;6.73;;;14.70;99.90;;;;;;5113170;28;20448;-72
2022/10/19 04:53:47;;;;;;;14.53;7.13;;;14.90;99.90;;;;;;5113445;28;20483;-71
2022/10/19 04:56:18;;;;;;;16.43;8.37;;;14.90;99.90;;;;;;5112823;28;20448;-72
2022/10/19 04:58:45;;;;;;;11.97;6.30;;;14.90;99.90;;;;;;5099127;28;20439;-71
2022/10/19 05:01:14;;;;;;;12.40;6.80;;;14.80;99.90;;;;;;5112827;28;20821;-71
2022/10/19 05:03:41;;;;;;;15.30;6.93;;;14.90;99.90;;;;;;5113478;28;20448;-71
2022/10/19 05:06:09;;;;;;;15.00;6.03;;;14.90;99.90;;;;;;5112797;28;20455;-71
2022/10/19 05:08:37;;;;;;;15.23;7.63;;;15.00;99.90;;;;;;5112990;28;20474;-71
2022/10/19 05:11:06;;;;;;;16.30;7.10;;;15.00;99.90;;;;;;5112344;28;20455;-71
2022/10/19 05:13:35;;;;;;;16.63;7.33;;;15.00;99.90;;;;;;5113203;28;20476;-71
2022/10/19 05:16:04;;;;;;;13.00;7.60;;;15.10;99.90;;;;;;5112484;28;20447;-71
2022/10/19 05:18:31;;;;;;;17.53;7.10;;;15.00;99.90;;;;;;5112286;28;20493;-71
2022/10/19 05:21:02;;;;;;;15.40;7.10;;;15.10;99.90;;;;;;5112350;28;20448;-71
2022/10/19 05:23:29;;;;;;;17.77;7.87;;;15.10;99.90;;;;;;5112965;28;20454;-71
2022/10/19 05:26:02;;;;;;;14.40;7.10;;;15.10;99.90;;;;;;5112378;28;20448;-68
2022/10/19 05:28:28;;;;;;;11.10;6.00;;;15.10;99.90;;;;;;5112428;28;20447;-70
2022/10/19 05:31:04;;;;;;;11.87;6.23;;;15.20;99.90;;;;;;5112941;28;20458;-71
2022/10/19 05:33:31;;;;;;;16.03;8.20;;;15.20;99.90;;;;;;5112904;28;20471;-71
2022/10/19 05:35:58;;;;;;;11.80;6.70;;;15.30;99.90;;;;;;5112137;28;20440;-71
2022/10/19 05:38:24;;;;;;;15.40;7.47;;;15.30;99.90;;;;;;5112567;28;20452;-71
2022/10/19 05:40:51;;;;;;;13.27;6.43;;;15.20;99.90;;;;;;5112267;28;20576;-71
2022/10/19 05:43:18;;;;;;;12.87;6.87;;;15.10;99.90;;;;;;5112235;28;20456;-71
2022/10/19 05:45:45;;;;;;;13.97;6.53;;;15.20;99.90;;;;;;5112451;28;20444;-71
2022/10/19 05:48:13;;;;;;;13.23;8.10;;;15.20;99.90;;;;;;5111404;28;20485;-71
2022/10/19 05:50:40;;;;;;;12.57;7.20;;;15.30;99.90;;;;;;5112499;28;20444;-71
2022/10/19 05:53:06;;;;;;;13.47;7.37;;;15.30;99.90;;;;;;5111843;28;20480;-71
2022/10/19 05:55:35;;;;;;;14.30;6.87;;;15.30;99.90;;;;;;5111972;28;20938;-71
2022/10/19 05:58:01;;;;;;;12.73;8.17;;;15.40;99.90;;;;;;5111460;28;20444;-70
2022/10/19 06:00:28;;;;;;;14.07;8.10;;;15.40;99.90;;;;;;5098159;28;20931;-70
2022/10/19 06:02:55;;;;;;;10.47;6.83;;;15.40;99.90;;;;;;5112365;28;20440;-71
2022/10/19 06:05:23;;;;;;;14.50;7.90;;;15.40;99.90;;;;;;5112574;28;20444;-71
2022/10/19 06:07:50;;;;;;;11.93;6.73;;;15.50;99.90;;;;;;5111863;28;20474;-71
2022/10/19 06:10:18;;;;;;;9.07;6.10;;;15.50;99.90;;;;;;5111661;28;20454;-68
2022/10/19 06:12:44;;;;;;;11.40;7.27;;;15.40;99.90;;;;;;5111849;28;20443;-71
2022/10/19 06:15:11;;;;;;;9.87;6.33;;;15.50;99.90;;;;;;5111619;28;20448;-71
2022/10/19 06:17:38;;;;;;;12.50;6.97;;;15.50;99.90;;;;;;5111843;28;20474;-71
2022/10/19 06:20:06;;;;;;;11.23;7.60;;;15.50;99.90;;;;;;5111592;28;20448;-71
2022/10/19 06:22:34;;;;;;;12.60;6.77;;;15.50;99.90;;;;;;5112030;28;20467;-71
2022/10/19 06:25:00;;;;;;;10.07;6.47;;;15.50;99.90;;;;;;5111180;28;20456;-71
2022/10/19 06:27:28;;;;;;;10.67;6.63;;;15.60;99.90;;;;;;5111171;28;20445;-71
2022/10/19 06:29:54;;;;;;;11.03;6.63;;;15.60;99.90;;;;;;5112059;28;20451;-71
2022/10/19 06:32:21;;;;;;;10.30;6.10;;;15.50;99.90;;;;;;5111271;28;20962;-71
2022/10/19 06:34:48;;;;;;;6.93;5.07;;;15.80;99.90;;;;;;5111774;28;20488;-71
2022/10/19 06:37:15;;;;;;;10.27;6.67;;;15.90;99.90;;;;;;5110681;28;20474;-71
2022/10/19 06:39:43;;;;;;;9.73;6.20;;;16.10;99.90;;;;;;5111617;28;20864;-71
2022/10/19 06:42:10;;;;;;;8.40;5.80;;;16.10;99.90;;;;;;5110995;28;20462;-71
2022/10/19 06:44:36;;;;;;;8.20;5.53;;;16.10;99.90;;;;;;5111732;28;20458;-72
2022/10/19 06:47:03;;;;;;;8.87;6.47;;;16.00;99.90;;;;;;5111240;28;20452;-71
2022/10/19 06:49:30;;;;;;;9.07;5.87;;;16.10;99.90;;;;;;5111372;28;20504;-70
2022/10/19 06:51:57;;;;;;;8.17;5.50;;;16.20;99.90;;;;;;5111039;28;20859;-70
2022/10/19 06:54:24;;;;;;;9.13;6.03;;;16.10;99.90;;;;;;5111847;28;20485;-72
2022/10/19 06:56:52;;;;;;;9.47;5.57;;;15.90;99.90;;;;;;5111670;28;20448;-72
2022/10/19 06:59:19;;;;;;;11.47;5.73;;;15.90;99.90;;;;;;5110424;28;20942;-71
2022/10/19 07:01:46;;;;;;;11.70;6.57;;;15.90;99.90;;;;;;5111282;28;20820;-71
2022/10/19 07:04:13;;;;;;;7.93;5.57;;;15.80;99.90;;;;;;5111041;28;20451;-71
2022/10/19 07:06:39;;;;;;;8.10;6.13;;;15.80;99.90;;;;;;5111255;28;20446;-71
2022/10/19 07:09:06;;;;;;;6.93;5.33;;;15.80;99.90;;;;;;5110495;28;20448;-71
2022/10/19 07:11:33;;;;;;;9.00;6.10;;;15.90;99.90;;;;;;5113074;28;20447;-71
2022/10/19 07:14:01;;;;;;;7.60;5.93;;;15.90;99.90;;;;;;5115036;28;20487;-71
2022/10/19 07:16:28;;;;;;;8.87;6.27;;;15.90;99.90;;;;;;5115596;28;20456;-71
2022/10/19 07:18:55;;;;;;;9.53;6.17;;;15.90;99.90;;;;;;5115232;28;20451;-71
2022/10/19 07:21:23;;;;;;;8.10;5.90;;;15.80;99.90;;;;;;5115125;28;20439;-71
2022/10/19 07:23:49;;;;;;;9.57;6.60;;;15.80;99.90;;;;;;5115124;28;20531;-71
2022/10/19 07:26:19;;;;;;;10.20;6.07;;;15.80;99.90;;;;;;5114604;28;20813;-71
2022/10/19 07:28:47;;;;;;;9.17;6.03;;;15.80;99.90;;;;;;5115186;28;20444;-71
2022/10/19 07:31:19;;;;;;;10.13;6.70;;;15.80;99.90;;;;;;5114729;28;20435;-71
2022/10/19 07:33:46;;;;;;;6.83;5.17;;;15.90;99.90;;;;;;5114798;28;20985;-71
2022/10/19 07:36:13;;;;;;;11.87;7.10;;;15.90;99.90;;;;;;5114636;28;20788;-71
2022/10/19 07:38:40;;;;;;;7.33;5.90;;;16.00;99.90;;;;;;5114238;28;20450;-71
2022/10/19 07:41:11;;;;;;;7.57;5.10;;;16.20;99.90;;;;;;5114509;28;20819;-71
2022/10/19 07:43:39;;;;;;;7.30;4.70;;;16.10;99.90;;;;;;5115085;28;20930;-71
2022/10/19 07:46:07;;;;;;;7.17;4.80;;;16.10;99.90;;;;;;5114304;28;20456;-71
2022/10/19 07:48:35;;;;;;;7.50;4.83;;;16.00;99.90;;;;;;5114469;28;20558;-71
2022/10/19 07:51:06;;;;;;;4.83;3.80;;;16.20;99.90;;;;;;5114462;28;20451;-71
2022/10/19 07:53:33;;;;;;;7.67;4.70;;;16.30;99.90;;;;;;5114782;28;20494;-71
2022/10/19 07:56:03;;;;;;;5.30;4.37;;;16.30;99.90;;;;;;5114082;28;20527;-71
2022/10/19 07:58:30;;;;;;;6.10;3.87;;;16.30;99.90;;;;;;5114005;28;20444;-70
2022/10/19 08:01:00;;;;;;;6.90;4.30;;;16.30;99.90;;;;;;5114126;28;20448;-69
2022/10/19 08:03:27;;;;;;;6.63;4.17;;;16.30;99.90;;;;;;5114206;28;20922;-70
2022/10/19 08:06:00;;;;;;;5.97;4.10;;;16.50;99.90;;;;;;5114715;28;20450;-71
2022/10/19 08:08:26;;;;;;;5.80;4.10;;;16.60;99.90;;;;;;5114067;28;20447;-69
2022/10/19 08:10:53;;;;;;;6.67;4.17;;;16.50;99.90;;;;;;5114572;28;20776;-71
2022/10/19 08:13:20;;;;;;;5.17;3.83;;;16.70;99.90;;;;;;5099986;28;20531;-71
2022/10/19 08:15:47;;;;;;;7.80;4.20;;;16.70;99.90;;;;;;5114413;28;20462;-71
2022/10/19 08:18:15;;;;;;;5.20;3.70;;;16.60;99.90;;;;;;5099690;28;20459;-71
2022/10/19 08:20:42;;;;;;;6.70;4.27;;;16.60;99.90;;;;;;5114176;28;20452;-70
2022/10/19 08:23:11;;;;;;;5.00;4.50;;;16.50;99.90;;;;;;5113357;28;20784;-71
2022/10/19 08:25:37;;;;;;;5.50;4.17;;;16.60;99.90;;;;;;5114184;28;20546;-71
2022/10/19 08:28:04;;;;;;;6.33;4.20;;;16.60;99.90;;;;;;5113173;28;20448;-71
2022/10/19 08:30:31;;;;;;;8.83;6.17;;;16.70;99.90;;;;;;5113891;28;20456;-71
2022/10/19 08:32:58;;;;;;;7.40;4.90;;;16.70;99.90;;;;;;5113267;28;20444;-71
2022/10/19 08:35:24;;;;;;;5.87;4.30;;;16.70;99.90;;;;;;5114034;28;20483;-71
2022/10/19 08:37:51;;;;;;;9.03;4.30;;;16.60;99.90;;;;;;5113921;28;20458;-71
2022/10/19 08:40:24;;;;;;;4.63;4.10;;;16.50;99.90;;;;;;5113332;28;20444;-71
2022/10/19 08:42:57;;;;;;;5.73;4.30;;;16.50;99.90;;;;;;5114102;28;20444;-71
2022/10/19 08:45:41;;;;;;;5.80;3.90;;;16.50;99.90;;;;;;5114032;28;20440;-72
2022/10/19 08:48:25;;;;;;;7.17;4.23;;;16.60;99.90;;;;;;5112538;27;20475;-72
2022/10/19 08:50:52;;;;;;;6.57;4.43;;;16.50;99.90;;;;;;5101713;28;20451;-72
2022/10/19 08:53:26;;;;;;;5.80;4.13;;;16.50;99.90;;;;;;5113097;28;20443;-71
2022/10/19 08:56:07;;;;;;;3.70;2.87;;;16.40;99.90;;;;;;5113938;28;20451;-71
2022/10/19 08:58:54;;;;;;;5.23;3.43;;;16.40;99.90;;;;;;5112995;28;20941;-71
2022/10/19 09:01:33;;;;;;;4.20;2.90;;;16.30;99.90;;;;;;5112949;28;20459;-71
2022/10/19 09:04:04;;;;;;;4.90;3.43;;;16.30;99.90;;;;;;5113116;28;20440;-71
2022/10/19 09:06:39;;;;;;;5.37;3.60;;;16.30;99.90;;;;;;5113188;28;20456;-72
2022/10/19 09:09:06;;;;;;;5.77;3.40;;;16.30;99.90;;;;;;5112353;28;20941;-72
2022/10/19 09:11:40;;;;;;;4.70;3.40;;;16.40;99.90;;;;;;5113062;28;20466;-71
2022/10/19 09:14:13;;;;;;;4.80;3.20;;;16.70;99.90;;;;;;5112443;28;20974;-72
2022/10/19 09:16:40;;;;;;;5.40;3.83;;;16.50;99.90;;;;;;5113397;28;20467;-72
2022/10/19 09:19:15;;;;;;;5.67;3.47;;;16.50;99.90;;;;;;5112308;28;20443;-72
2022/10/19 09:21:46;;;;;;;3.90;2.90;;;16.50;99.90;;;;;;5113133;28;20448;-72
2022/10/19 09:24:25;;;;;;;4.77;3.70;;;16.50;99.90;;;;;;5112422;28;20514;-72
2022/10/19 09:26:56;;;;;;;5.60;3.83;;;16.50;99.90;;;;;;5113026;28;20454;-72
2022/10/19 09:29:29;;;;;;;4.30;3.30;;;16.50;99.90;;;;;;5112957;28;20467;-73
2022/10/19 09:32:00;;;;;;;5.03;3.20;;;16.50;99.90;;;;;;5113306;28;20803;-69
2022/10/19 09:34:32;;;;;;;5.70;3.63;;;16.40;99.90;;;;;;5111947;28;20482;-70
2022/10/19 09:37:00;;;;;;;5.63;3.70;;;16.30;99.90;;;;;;5111985;28;20440;-71
2022/10/19 09:39:28;;;;;;;4.53;3.30;;;16.40;99.90;;;;;;5112802;28;20455;-70
2022/10/19 09:41:59;;;;;;;6.37;3.83;;;16.40;99.90;;;;;;5112796;28;20930;-71
2022/10/19 09:44:27;;;;;;;4.23;3.37;;;16.50;99.90;;;;;;5113001;28;20797;-72
2022/10/19 09:47:01;;;;;;;8.50;4.10;;;16.50;99.90;;;;;;5112020;28;20452;-71
2022/10/19 09:49:42;;;;;;;5.07;3.20;;;16.50;99.90;;;;;;5112875;28;20475;-71
2022/10/19 09:52:24;;;;;;;4.40;3.60;;;16.40;99.90;;;;;;5111899;28;20474;-72
2022/10/19 09:55:00;;;;;;;6.63;4.27;;;16.30;99.90;;;;;;5112494;28;20471;-73
2022/10/19 09:57:29;;;;;;;4.87;3.83;;;16.30;99.90;;;;;;5111886;28;20935;-71
2022/10/19 09:59:56;;;;;;;4.53;3.93;;;16.60;99.90;;;;;;5112313;28;20448;-72
2022/10/19 10:02:30;;;;;;;4.90;3.50;;;16.60;99.90;;;;;;5112593;28;20456;-72
2022/10/19 10:05:03;;;;;;;4.20;3.20;;;16.50;99.90;;;;;;5111921;28;20440;-69
2022/10/19 10:07:35;;;;;;;4.80;2.97;;;16.60;99.90;;;;;;5111958;28;20462;-72
2022/10/19 10:10:02;;;;;;;4.07;2.90;;;16.70;90.60;;;;;;5111649;28;20447;-72
2022/10/19 10:12:30;;;;;;;6.60;4.47;;;16.60;99.90;;;;;;5111705;28;20458;-72
2022/10/19 10:14:57;;;;;;;10.17;6.73;;;16.60;99.90;;;;;;5097993;28;20475;-69
2022/10/19 10:17:30;;;;;;;7.90;3.73;;;16.70;99.90;;;;;;5111998;28;20462;-72
2022/10/19 10:20:18;;;;;;;4.80;3.13;;;16.70;95.80;;;;;;5098767;28;20440;-69
2022/10/19 10:22:55;;;;;;;3.70;2.63;;;16.70;99.90;;;;;;5111833;28;20440;-72
2022/10/19 10:25:25;;;;;;;4.20;2.60;;;16.80;94.20;;;;;;5112246;28;20942;-71
2022/10/19 10:28:00;;;;;;;3.00;2.30;;;16.80;29.90;;;;;;5111415;28;20440;-72
2022/10/19 10:30:32;;;;;;;3.53;2.73;;;16.80;34.80;;;;;;5112051;28;20439;-69
2022/10/19 10:32:59;;;;;;;4.10;2.40;;;16.80;51.70;;;;;;5111583;28;20435;-71
2022/10/19 10:35:32;;;;;;;2.97;2.67;;;16.80;1.00;;;;;;5111825;28;20484;-70
2022/10/19 10:38:09;;;;;;;2.73;2.40;;;16.70;21.40;;;;;;5111127;28;20545;-71
2022/10/19 10:40:38;;;;;;;2.50;2.20;;;16.70;20.00;;;;;;5111761;28;20439;-71
2022/10/19 10:43:08;;;;;;;3.50;2.57;;;16.80;1.00;;;;;;5111095;28;20444;-71
2022/10/19 10:45:40;;;;;;;3.50;2.90;;;16.80;4.50;;;;;;5111450;28;20453;-71
2022/10/19 10:48:18;;;;;;;5.43;2.80;;;16.80;1.00;;;;;;5110452;28;20479;-72
2022/10/19 10:50:46;;;;;;;4.17;3.10;;;17.00;1.00;;;;;;5111510;28;20448;-72
2022/10/19 10:53:35;;;;;;;6.07;3.23;;;17.00;1.00;;;;;;5110776;28;20448;-71
2022/10/19 10:56:03;;;;;;;3.90;2.57;;;17.10;1.00;;;;;;5111133;28;20484;-71
2022/10/19 10:58:38;;;;;;;3.27;2.97;;;17.10;1.00;;;;;;5110749;28;20951;-71
2022/10/19 11:01:13;;;;;;;3.93;2.47;;;17.20;1.00;;;;;;5110661;28;20439;-71
2022/10/19 11:03:46;;;;;;;2.60;2.10;;;17.30;1.00;;;;;;5098515;28;20918;-71
2022/10/19 11:06:13;;;;;;;2.70;2.37;;;17.50;1.00;;;;;;5111197;28;20450;-71
2022/10/19 11:08:46;;;;;;;4.27;2.10;;;17.50;1.00;;;;;;5111081;28;20447;-71
2022/10/19 11:11:17;;;;;;;4.83;2.40;;;17.50;1.00;;;;;;5111130;28;20790;-71
2022/10/19 11:13:51;;;;;;;4.20;2.27;;;17.50;1.00;;;;;;5112114;28;20507;-72
2022/10/19 11:16:21;;;;;;;2.20;1.73;;;17.60;99.90;;;;;;5112598;28;20498;-72
2022/10/19 11:18:53;;;;;;;2.63;1.70;;;17.70;99.90;;;;;;5111157;28;20444;-71
2022/10/19 11:21:26;;;;;;;2.33;1.70;;;17.60;99.90;;;;;;5110487;28;20440;-71
2022/10/19 11:24:01;;;;;;;4.70;2.10;;;17.60;99.90;;;;;;5111618;28;20447;-71
2022/10/19 11:26:50;;;;;;;4.33;2.83;;;17.50;99.90;;;;;;5111335;28;20451;-71
2022/10/19 11:29:30;;;;;;;4.80;2.37;;;17.50;1.00;;;;;;5110727;28;20448;-71
2022/10/19 11:31:57;;;;;;;7.00;2.30;;;17.50;1.00;;;;;;5110920;28;20444;-68
2022/10/19 11:34:50;;;;;;;5.77;2.13;;;17.50;1.00;;;;;;5111023;28;20466;-71
2022/10/19 11:37:27;;;;;;;3.20;2.33;;;17.70;99.90;;;;;;5110234;28;20452;-70
2022/10/19 11:40:05;;;;;;;3.17;2.00;;;17.80;99.90;;;;;;5111117;28;20494;-71
2022/10/19 11:42:47;;;;;;;3.87;2.40;;;17.90;92.80;;;;;;5110647;28;20930;-71
2022/10/19 11:45:23;;;;;;;2.97;2.47;;;17.90;34.60;;;;;;5110306;28;20455;-71
2022/10/19 11:48:24;;;;;;;5.37;2.40;;;17.80;99.90;;;;;;5110147;28;20478;-71
2022/10/19 11:50:55;;;;;;;2.50;1.87;;;17.80;7.90;;;;;;5111570;28;20522;-71
2022/10/19 11:53:33;;;;;;;2.33;2.00;;;17.90;1.00;;;;;;5111131;28;20460;-71
2022/10/19 11:56:06;;;;;;;3.70;2.30;;;17.70;1.00;;;;;;5110581;28;20474;-71
2022/10/19 11:58:42;;;;;;;3.60;2.03;;;17.70;1.00;;;;;;5113657;28;20440;-71
2022/10/19 12:01:22;;;;;;;3.10;2.57;;;17.70;1.00;;;;;;5113775;28;20443;-71
2022/10/19 12:04:14;;;;;;;4.03;2.10;;;17.70;1.00;;;;;;5102742;28;20547;-71
2022/10/19 12:06:47;;;;;;;3.30;2.40;;;17.70;42.50;;;;;;5102714;28;20935;-70
2022/10/19 12:09:27;;;;;;;3.63;2.57;;;17.70;1.00;;;;;;5113998;28;20450;-71
2022/10/19 12:12:11;;;;;;;2.80;2.60;;;17.80;1.00;;;;;;5114332;28;20448;-71
2022/10/19 12:14:41;;;;;;;3.00;2.27;;;17.90;1.00;;;;;;5114394;28;20440;-71
2022/10/19 12:17:14;;;;;;;2.53;2.07;;;17.90;99.90;;;;;;5113495;28;20554;-71
2022/10/19 12:19:46;;;;;;;3.90;2.70;;;18.00;99.90;;;;;;5114468;28;20444;-71
2022/10/19 12:22:17;;;;;;;2.70;2.50;;;18.10;99.90;;;;;;5113817;28;20531;-71
2022/10/19 12:24:44;;;;;;;2.37;1.80;;;18.30;99.90;;;;;;5114301;28;20527;-71
2022/10/19 12:27:13;;;;;;;3.20;2.00;;;18.20;1.00;;;;;;5113068;28;20448;-71
2022/10/19 12:29:43;;;;;;;3.83;2.80;;;18.20;1.00;;;;;;5113913;28;20440;-71
2022/10/19 12:32:15;;;;;;;3.50;3.10;;;18.30;1.00;;;;;;5113560;28;20444;-71
2022/10/19 12:34:50;;;;;;;3.37;2.67;;;18.20;1.00;;;;;;5113721;28;20942;-71
2022/10/19 12:37:25;;;;;;;2.40;2.20;;;18.10;1.00;;;;;;5113056;28;20494;-71
2022/10/19 12:39:57;;;;;;;3.23;2.30;;;18.10;1.00;;;;;;5113872;28;20443;-71
2022/10/19 12:42:30;;;;;;;2.60;2.40;;;18.30;1.00;;;;;;5113908;28;20454;-71
2022/10/19 12:45:12;;;;;;;2.90;2.20;;;18.30;99.90;;;;;;5113385;28;20452;-71
2022/10/19 12:48:01;;;;;;;4.00;2.70;;;18.30;99.90;;;;;;5113107;28;20534;-71
2022/10/19 12:51:02;;;;;;;3.90;2.57;;;18.40;99.90;;;;;;5071524;28;20556;-70
2022/10/19 12:53:30;;;;;;;3.00;2.03;;;18.30;99.90;;;;;;5073131;28;20457;-71
2022/10/19 12:56:01;;;;;;;3.20;2.33;;;18.10;1.00;;;;;;5072409;28;20482;-71
2022/10/19 12:58:33;;;;;;;3.40;2.50;;;18.10;1.00;;;;;;5072399;28;20449;-71
2022/10/19 13:01:02;;;;;;;3.57;2.00;;;18.00;1.00;;;;;;5066125;28;20447;-71
2022/10/19 13:03:33;;;;;;;3.63;3.13;;;17.90;96.20;;;;;;5058670;28;20438;-71
2022/10/19 13:06:02;;;;;;;3.80;2.63;;;17.90;99.90;;;;;;5072044;28;20457;-71
2022/10/19 13:08:32;;;;;;;4.37;3.23;;;18.00;90.70;;;;;;5072424;28;20450;-71
2022/10/19 13:11:08;;;;;;;2.87;2.30;;;18.00;99.90;;;;;;5072205;28;20445;-71
2022/10/19 13:13:55;;;;;;;3.60;2.40;;;18.00;99.90;;;;;;5072142;28;20933;-71
2022/10/19 13:16:56;;;;;;;4.70;2.57;;;17.80;99.90;;;;;;5072733;28;20497;-70
2022/10/19 13:19:25;;;;;;;2.37;1.90;;;17.80;99.90;;;;;;5072848;28;20445;-71
2022/10/19 13:21:55;;;;;;;6.50;2.67;;;17.90;1.00;;;;;;5072732;28;20450;-72
2022/10/19 13:24:32;;;;;;;4.50;3.00;;;17.80;1.00;;;;;;5072621;28;20525;-71
2022/10/19 13:27:24;;;;;;;3.20;2.27;;;17.70;99.90;;;;;;5071377;28;20543;-70
2022/10/19 13:29:51;;;;;;;5.80;2.60;;;17.60;1.00;;;;;;5065374;28;20461;-71